DAL845 ZBAD-ZLLL
Flight info
| Callsign | DAL845 |
|---|---|
| Flight time | 1h 49m |
| Altitude | 32100 |
| Route | PEGSO7F PEGSO B215 OROXU OROXU9K |
| Aircraft | B764/H-SDE3FGHIM3RWXY/LB1 |
Departure
| Time | 2026-05-08 11:58 |
|---|---|
| Airport | Beijing Daxing International Airport (ZBAD) |
Arrival
| Time | 2026-05-08 13:47 |
|---|---|
| Airport | Lanzhou Zhongchuan International Airport (ZLLL) |
| Time | Latitude | Longitude | Altitude | Speed | Heading |
|---|---|---|---|---|---|
| 2026-05-08 11:41 | 39.50410 | 116.41228 | 93 ft | 0 kts | 353° |
| 2026-05-08 11:46 | 39.50397 | 116.41230 | 93 ft | 2 kts | 353° |
| 2026-05-08 11:46 | 39.50383 | 116.41232 | 93 ft | 2 kts | 352° |
| 2026-05-08 11:46 | 39.50367 | 116.41235 | 93 ft | 2 kts | 354° |
| 2026-05-08 11:47 | 39.50353 | 116.41234 | 93 ft | 2 kts | 13° |
| 2026-05-08 11:47 | 39.50339 | 116.41228 | 93 ft | 2 kts | 26° |
| 2026-05-08 11:47 | 39.50326 | 116.41218 | 93 ft | 2 kts | 40° |
| 2026-05-08 11:47 | 39.50316 | 116.41204 | 93 ft | 2 kts | 53° |
| 2026-05-08 11:48 | 39.50308 | 116.41188 | 93 ft | 2 kts | 67° |
| 2026-05-08 11:48 | 39.50304 | 116.41170 | 93 ft | 0 kts | 81° |
| 2026-05-08 11:48 | 39.50304 | 116.41164 | 93 ft | 0 kts | 83° |
| 2026-05-08 11:51 | 39.50305 | 116.41175 | 93 ft | 3 kts | 83° |
| 2026-05-08 11:51 | 39.50307 | 116.41196 | 93 ft | 1 kts | 83° |
| 2026-05-08 11:51 | 39.50308 | 116.41214 | 93 ft | 2 kts | 83° |
| 2026-05-08 11:51 | 39.50311 | 116.41241 | 93 ft | 3 kts | 83° |
| 2026-05-08 11:52 | 39.50314 | 116.41270 | 93 ft | 3 kts | 83° |
| 2026-05-08 11:52 | 39.50319 | 116.41324 | 93 ft | 7 kts | 81° |
| 2026-05-08 11:52 | 39.50323 | 116.41393 | 93 ft | 8 kts | 93° |
| 2026-05-08 11:52 | 39.50288 | 116.41459 | 93 ft | 9 kts | 158° |
| 2026-05-08 11:53 | 39.50238 | 116.41487 | 93 ft | 6 kts | 127° |
| 2026-05-08 11:53 | 39.50234 | 116.41537 | 93 ft | 6 kts | 83° |
| 2026-05-08 11:53 | 39.50240 | 116.41602 | 93 ft | 8 kts | 83° |
| 2026-05-08 11:53 | 39.50247 | 116.41687 | 93 ft | 9 kts | 83° |
| 2026-05-08 11:54 | 39.50254 | 116.41767 | 93 ft | 8 kts | 83° |
| 2026-05-08 11:54 | 39.50263 | 116.41856 | 93 ft | 11 kts | 82° |
| 2026-05-08 11:54 | 39.50276 | 116.41990 | 93 ft | 17 kts | 83° |
| 2026-05-08 11:54 | 39.50287 | 116.42139 | 93 ft | 15 kts | 93° |
| 2026-05-08 11:55 | 39.50226 | 116.42200 | 93 ft | 11 kts | 177° |
| 2026-05-08 11:55 | 39.50147 | 116.42223 | 93 ft | 12 kts | 139° |
| 2026-05-08 11:55 | 39.50136 | 116.42335 | 93 ft | 13 kts | 85° |
| 2026-05-08 11:55 | 39.50142 | 116.42452 | 93 ft | 12 kts | 84° |
| 2026-05-08 11:56 | 39.50150 | 116.42560 | 93 ft | 11 kts | 85° |
| 2026-05-08 11:56 | 39.50130 | 116.42656 | 93 ft | 9 kts | 141° |
| 2026-05-08 11:56 | 39.50073 | 116.42670 | 93 ft | 7 kts | 174° |
| 2026-05-08 11:56 | 39.49977 | 116.42684 | 93 ft | 29 kts | 173° |
| 2026-05-08 11:57 | 39.49610 | 116.42744 | 93 ft | 77 kts | 173° |
| 2026-05-08 11:57 | 39.48921 | 116.42851 | 93 ft | 121 kts | 173° |
| 2026-05-08 11:57 | 39.47944 | 116.42994 | 95 ft | 159 kts | 171° |
| 2026-05-08 11:57 | 39.46800 | 116.43192 | 339 ft | 173 kts | 173° |
| 2026-05-08 11:58 | 39.45601 | 116.43375 | 932 ft | 172 kts | 173° |
| 2026-05-08 11:58 | 39.44442 | 116.43555 | 1624 ft | 166 kts | 174° |
| 2026-05-08 11:58 | 39.43304 | 116.43734 | 2134 ft | 170 kts | 175° |
| 2026-05-08 11:59 | 39.40906 | 116.44120 | 3138 ft | 177 kts | 175° |
| 2026-05-08 11:59 | 39.39603 | 116.44308 | 3295 ft | 200 kts | 175° |
| 2026-05-08 11:59 | 39.38142 | 116.44520 | 3415 ft | 225 kts | 175° |
| 2026-05-08 11:59 | 39.36556 | 116.44627 | 3871 ft | 230 kts | 190° |
| 2026-05-08 12:00 | 39.35117 | 116.43774 | 4421 ft | 232 kts | 221° |
| 2026-05-08 12:00 | 39.34175 | 116.42096 | 4968 ft | 236 kts | 239° |
| 2026-05-08 12:00 | 39.33344 | 116.40243 | 5476 ft | 245 kts | 239° |
| 2026-05-08 12:00 | 39.32455 | 116.38244 | 5791 ft | 265 kts | 240° |
| 2026-05-08 12:01 | 39.31556 | 116.36183 | 6644 ft | 264 kts | 242° |
| 2026-05-08 12:01 | 39.30661 | 116.34113 | 7341 ft | 268 kts | 243° |
| 2026-05-08 12:01 | 39.29753 | 116.31998 | 7882 ft | 278 kts | 243° |
| 2026-05-08 12:01 | 39.28793 | 116.29755 | 7870 ft | 286 kts | 244° |
| 2026-05-08 12:02 | 39.27860 | 116.27583 | 7861 ft | 274 kts | 244° |
| 2026-05-08 12:02 | 39.26947 | 116.25449 | 7868 ft | 270 kts | 244° |
| 2026-05-08 12:02 | 39.26044 | 116.23338 | 7868 ft | 268 kts | 244° |
| 2026-05-08 12:02 | 39.25147 | 116.21242 | 7877 ft | 268 kts | 244° |
| 2026-05-08 12:03 | 39.24233 | 116.19107 | 7876 ft | 269 kts | 244° |
| 2026-05-08 12:03 | 39.23327 | 116.16997 | 7876 ft | 270 kts | 244° |
| 2026-05-08 12:03 | 39.22421 | 116.14885 | 7874 ft | 269 kts | 244° |
| 2026-05-08 12:03 | 39.21515 | 116.12772 | 7871 ft | 269 kts | 244° |
| 2026-05-08 12:04 | 39.20608 | 116.10662 | 7874 ft | 270 kts | 244° |
| 2026-05-08 12:04 | 39.19710 | 116.08570 | 7978 ft | 272 kts | 244° |
| 2026-05-08 12:04 | 39.18776 | 116.06399 | 8562 ft | 276 kts | 245° |
| 2026-05-08 12:04 | 39.17862 | 116.04279 | 9419 ft | 274 kts | 246° |
| 2026-05-08 12:05 | 39.16931 | 116.02113 | 10101 ft | 279 kts | 246° |
| 2026-05-08 12:05 | 39.15971 | 115.99871 | 10376 ft | 300 kts | 246° |
| 2026-05-08 12:05 | 39.14921 | 115.97423 | 10425 ft | 330 kts | 246° |
| 2026-05-08 12:05 | 39.13757 | 115.94730 | 10526 ft | 359 kts | 245° |
| 2026-05-08 12:06 | 39.12512 | 115.91869 | 11317 ft | 368 kts | 245° |
| 2026-05-08 12:06 | 39.11253 | 115.88973 | 12170 ft | 374 kts | 246° |
| 2026-05-08 12:06 | 39.09981 | 115.86053 | 13076 ft | 379 kts | 246° |
| 2026-05-08 12:06 | 39.08694 | 115.83092 | 13963 ft | 385 kts | 246° |
| 2026-05-08 12:07 | 39.07389 | 115.80087 | 14793 ft | 392 kts | 246° |
| 2026-05-08 12:07 | 39.06049 | 115.77012 | 15708 ft | 397 kts | 246° |
| 2026-05-08 12:07 | 39.04682 | 115.73872 | 16515 ft | 405 kts | 246° |
| 2026-05-08 12:07 | 39.03304 | 115.70714 | 17433 ft | 409 kts | 245° |
| 2026-05-08 12:08 | 39.01915 | 115.67532 | 18158 ft | 418 kts | 245° |
| 2026-05-08 12:08 | 39.00496 | 115.64289 | 19111 ft | 421 kts | 245° |
| 2026-05-08 12:08 | 38.99057 | 115.60999 | 19946 ft | 427 kts | 245° |
| 2026-05-08 12:08 | 38.97594 | 115.57661 | 20779 ft | 432 kts | 245° |
| 2026-05-08 12:09 | 38.96120 | 115.54302 | 21613 ft | 436 kts | 245° |
| 2026-05-08 12:09 | 38.94638 | 115.50924 | 22388 ft | 441 kts | 245° |
| 2026-05-08 12:09 | 38.93253 | 115.47375 | 23113 ft | 442 kts | 251° |
| 2026-05-08 12:09 | 38.92053 | 115.43749 | 23850 ft | 446 kts | 250° |
| 2026-05-08 12:10 | 38.90792 | 115.40121 | 24590 ft | 449 kts | 250° |
| 2026-05-08 12:10 | 38.89522 | 115.36460 | 25266 ft | 452 kts | 250° |
| 2026-05-08 12:10 | 38.88242 | 115.32793 | 25883 ft | 455 kts | 249° |
| 2026-05-08 12:10 | 38.86943 | 115.29090 | 26527 ft | 457 kts | 249° |
| 2026-05-08 12:11 | 38.85640 | 115.25380 | 27128 ft | 459 kts | 249° |
| 2026-05-08 12:11 | 38.84323 | 115.21639 | 27640 ft | 463 kts | 249° |
| 2026-05-08 12:11 | 38.83006 | 115.17906 | 28210 ft | 464 kts | 249° |
| 2026-05-08 12:11 | 38.81680 | 115.14150 | 28749 ft | 465 kts | 249° |
| 2026-05-08 12:12 | 38.80353 | 115.10400 | 29388 ft | 463 kts | 249° |
| 2026-05-08 12:12 | 38.79029 | 115.06665 | 30087 ft | 458 kts | 249° |
| 2026-05-08 12:12 | 38.77720 | 115.02973 | 30607 ft | 457 kts | 249° |
| 2026-05-08 12:12 | 38.76410 | 114.99287 | 31169 ft | 453 kts | 249° |
| 2026-05-08 12:13 | 38.75112 | 114.95632 | 31644 ft | 453 kts | 249° |
| 2026-05-08 12:13 | 38.73828 | 114.92015 | 32040 ft | 450 kts | 249° |
| 2026-05-08 12:13 | 38.71252 | 114.84780 | 32030 ft | 446 kts | 250° |
| 2026-05-08 12:14 | 38.68676 | 114.77556 | 32025 ft | 446 kts | 249° |
| 2026-05-08 12:14 | 38.66103 | 114.70363 | 32035 ft | 445 kts | 249° |
| 2026-05-08 12:15 | 38.63534 | 114.63198 | 32033 ft | 445 kts | 250° |
| 2026-05-08 12:15 | 38.60945 | 114.56033 | 32033 ft | 443 kts | 249° |
| 2026-05-08 12:16 | 38.58366 | 114.48920 | 32036 ft | 442 kts | 250° |
| 2026-05-08 12:16 | 38.55799 | 114.41832 | 32044 ft | 442 kts | 250° |
| 2026-05-08 12:17 | 38.53219 | 114.34721 | 32037 ft | 442 kts | 249° |
| 2026-05-08 12:17 | 38.50640 | 114.27634 | 32037 ft | 441 kts | 249° |
| 2026-05-08 12:18 | 38.48062 | 114.20563 | 32034 ft | 440 kts | 249° |
| 2026-05-08 12:18 | 38.45477 | 114.13490 | 32039 ft | 439 kts | 249° |
| 2026-05-08 12:19 | 38.42908 | 114.06477 | 32037 ft | 438 kts | 249° |
| 2026-05-08 12:19 | 38.40327 | 113.99441 | 32045 ft | 438 kts | 249° |
| 2026-05-08 12:20 | 38.37760 | 113.92452 | 32040 ft | 437 kts | 249° |
| 2026-05-08 12:20 | 38.35180 | 113.85446 | 32085 ft | 438 kts | 249° |
| 2026-05-08 12:21 | 38.32564 | 113.78433 | 32071 ft | 436 kts | 249° |
| 2026-05-08 12:21 | 38.29949 | 113.71490 | 32104 ft | 436 kts | 249° |
| 2026-05-08 12:22 | 38.27339 | 113.64576 | 32118 ft | 437 kts | 249° |
| 2026-05-08 12:22 | 38.24719 | 113.57656 | 32156 ft | 435 kts | 249° |
| 2026-05-08 12:23 | 38.22078 | 113.50693 | 32163 ft | 436 kts | 249° |
| 2026-05-08 12:23 | 38.19448 | 113.43777 | 32191 ft | 434 kts | 249° |
| 2026-05-08 12:24 | 38.16824 | 113.36890 | 32214 ft | 435 kts | 249° |
| 2026-05-08 12:24 | 38.14251 | 113.29996 | 32231 ft | 435 kts | 249° |
| 2026-05-08 12:25 | 38.11665 | 113.23059 | 32256 ft | 433 kts | 249° |
| 2026-05-08 12:25 | 38.09091 | 113.16177 | 32239 ft | 432 kts | 249° |
| 2026-05-08 12:26 | 38.06530 | 113.09342 | 32260 ft | 431 kts | 249° |
| 2026-05-08 12:26 | 38.03958 | 113.02490 | 32249 ft | 432 kts | 249° |
| 2026-05-08 12:27 | 38.01373 | 112.95622 | 32246 ft | 431 kts | 249° |
| 2026-05-08 12:27 | 37.98801 | 112.88806 | 32230 ft | 429 kts | 249° |
| 2026-05-08 12:28 | 37.96228 | 112.81998 | 32234 ft | 431 kts | 249° |
| 2026-05-08 12:28 | 37.93646 | 112.75188 | 32224 ft | 429 kts | 250° |
| 2026-05-08 12:29 | 37.91072 | 112.68408 | 32208 ft | 428 kts | 249° |
| 2026-05-08 12:29 | 37.88484 | 112.61609 | 32199 ft | 428 kts | 249° |
| 2026-05-08 12:30 | 37.85763 | 112.54896 | 32198 ft | 431 kts | 248° |
| 2026-05-08 12:30 | 37.82957 | 112.48258 | 32178 ft | 431 kts | 248° |
| 2026-05-08 12:31 | 37.80139 | 112.41609 | 32199 ft | 429 kts | 248° |
| 2026-05-08 12:31 | 37.78268 | 112.34605 | 32226 ft | 418 kts | 265° |
| 2026-05-08 12:32 | 37.78373 | 112.27351 | 32265 ft | 415 kts | 277° |
| 2026-05-08 12:32 | 37.78973 | 112.20088 | 32268 ft | 414 kts | 277° |
| 2026-05-08 12:33 | 37.79620 | 112.12894 | 32288 ft | 413 kts | 278° |
| 2026-05-08 12:33 | 37.80291 | 112.05680 | 32299 ft | 414 kts | 278° |
| 2026-05-08 12:34 | 37.80966 | 111.98490 | 32293 ft | 413 kts | 278° |
| 2026-05-08 12:34 | 37.81644 | 111.91270 | 32295 ft | 413 kts | 278° |
| 2026-05-08 12:35 | 37.82316 | 111.84110 | 32297 ft | 414 kts | 278° |
| 2026-05-08 12:35 | 37.82987 | 111.76914 | 32293 ft | 413 kts | 278° |
| 2026-05-08 12:36 | 37.83687 | 111.69666 | 32298 ft | 414 kts | 279° |
| 2026-05-08 12:36 | 37.84475 | 111.62528 | 32298 ft | 413 kts | 279° |
| 2026-05-08 12:37 | 37.85258 | 111.55344 | 32287 ft | 414 kts | 279° |
| 2026-05-08 12:37 | 37.86009 | 111.48129 | 32279 ft | 415 kts | 278° |
| 2026-05-08 12:38 | 37.86643 | 111.40894 | 32285 ft | 414 kts | 278° |
| 2026-05-08 12:38 | 37.87272 | 111.33698 | 32280 ft | 413 kts | 277° |
| 2026-05-08 12:39 | 37.87898 | 111.26502 | 32294 ft | 413 kts | 277° |
| 2026-05-08 12:39 | 37.88521 | 111.19293 | 32281 ft | 414 kts | 277° |
| 2026-05-08 12:40 | 37.89142 | 111.12059 | 32270 ft | 413 kts | 277° |
| 2026-05-08 12:40 | 37.89758 | 111.04828 | 32241 ft | 413 kts | 277° |
| 2026-05-08 12:41 | 37.90365 | 110.97645 | 32224 ft | 413 kts | 277° |
| 2026-05-08 12:41 | 37.90970 | 110.90433 | 32221 ft | 412 kts | 277° |
| 2026-05-08 12:42 | 37.91568 | 110.83240 | 32216 ft | 413 kts | 277° |
| 2026-05-08 12:42 | 37.92165 | 110.76014 | 32201 ft | 413 kts | 277° |
| 2026-05-08 12:43 | 37.92755 | 110.68829 | 32195 ft | 412 kts | 277° |
| 2026-05-08 12:43 | 37.93439 | 110.61652 | 32190 ft | 412 kts | 278° |
| 2026-05-08 12:44 | 37.94168 | 110.54449 | 32189 ft | 413 kts | 278° |
| 2026-05-08 12:44 | 37.94890 | 110.47295 | 32183 ft | 412 kts | 278° |
| 2026-05-08 12:45 | 37.95609 | 110.40116 | 32188 ft | 413 kts | 279° |
| 2026-05-08 12:45 | 37.96326 | 110.32905 | 32189 ft | 413 kts | 278° |
| 2026-05-08 12:46 | 37.97037 | 110.25700 | 32208 ft | 411 kts | 278° |
| 2026-05-08 12:46 | 37.97740 | 110.18559 | 32210 ft | 411 kts | 278° |
| 2026-05-08 12:47 | 37.98442 | 110.11364 | 32201 ft | 410 kts | 278° |
| 2026-05-08 12:47 | 37.99135 | 110.04210 | 32183 ft | 410 kts | 278° |
| 2026-05-08 12:48 | 37.99828 | 109.97028 | 32170 ft | 411 kts | 278° |
| 2026-05-08 12:48 | 38.00514 | 109.89857 | 32177 ft | 411 kts | 278° |
| 2026-05-08 12:49 | 38.01197 | 109.82676 | 32174 ft | 411 kts | 278° |
| 2026-05-08 12:49 | 38.01873 | 109.75526 | 32174 ft | 412 kts | 278° |
| 2026-05-08 12:50 | 38.02547 | 109.68340 | 32183 ft | 411 kts | 278° |
| 2026-05-08 12:50 | 38.03218 | 109.61131 | 32179 ft | 411 kts | 278° |
| 2026-05-08 12:51 | 38.04213 | 109.50378 | 32192 ft | 412 kts | 278° |
| 2026-05-08 12:52 | 38.04872 | 109.43184 | 32206 ft | 411 kts | 278° |
| 2026-05-08 12:52 | 38.05850 | 109.32422 | 32216 ft | 411 kts | 278° |
| 2026-05-08 12:53 | 38.06502 | 109.25187 | 32227 ft | 412 kts | 278° |
| 2026-05-08 12:53 | 38.07148 | 109.17985 | 32213 ft | 412 kts | 278° |
| 2026-05-08 12:54 | 38.07785 | 109.10812 | 32223 ft | 411 kts | 278° |
| 2026-05-08 12:54 | 38.08421 | 109.03617 | 32218 ft | 412 kts | 278° |
| 2026-05-08 12:55 | 38.09055 | 108.96397 | 32207 ft | 413 kts | 278° |
| 2026-05-08 12:55 | 38.09685 | 108.89164 | 32213 ft | 414 kts | 278° |
| 2026-05-08 12:56 | 38.10308 | 108.81966 | 32212 ft | 412 kts | 278° |
| 2026-05-08 12:56 | 38.10926 | 108.74766 | 32221 ft | 413 kts | 278° |
| 2026-05-08 12:57 | 38.11545 | 108.67500 | 32213 ft | 413 kts | 278° |
| 2026-05-08 12:57 | 38.12157 | 108.60267 | 32222 ft | 415 kts | 278° |
| 2026-05-08 12:58 | 38.12765 | 108.53023 | 32229 ft | 415 kts | 278° |
| 2026-05-08 12:58 | 38.13371 | 108.45751 | 32226 ft | 413 kts | 278° |
| 2026-05-08 12:59 | 38.13970 | 108.38509 | 32228 ft | 414 kts | 278° |
| 2026-05-08 12:59 | 38.14567 | 108.31250 | 32244 ft | 415 kts | 278° |
| 2026-05-08 13:00 | 38.15276 | 108.23988 | 32239 ft | 415 kts | 279° |
| 2026-05-08 13:00 | 38.15993 | 108.16743 | 32246 ft | 413 kts | 279° |
| 2026-05-08 13:01 | 38.16708 | 108.09480 | 32246 ft | 415 kts | 279° |
| 2026-05-08 13:01 | 38.17412 | 108.02255 | 32242 ft | 416 kts | 279° |
| 2026-05-08 13:02 | 38.18119 | 107.94974 | 32245 ft | 414 kts | 279° |
| 2026-05-08 13:02 | 38.18819 | 107.87708 | 32246 ft | 416 kts | 279° |
| 2026-05-08 13:03 | 38.19512 | 107.80464 | 32242 ft | 415 kts | 278° |
| 2026-05-08 13:03 | 38.20231 | 107.73196 | 32233 ft | 416 kts | 281° |
| 2026-05-08 13:04 | 38.21069 | 107.65949 | 32239 ft | 415 kts | 280° |
| 2026-05-08 13:04 | 38.21896 | 107.58703 | 32241 ft | 416 kts | 281° |
| 2026-05-08 13:05 | 38.22722 | 107.51426 | 32243 ft | 416 kts | 280° |
| 2026-05-08 13:05 | 38.23541 | 107.44166 | 32229 ft | 416 kts | 280° |
| 2026-05-08 13:06 | 38.24352 | 107.36929 | 32241 ft | 415 kts | 280° |
| 2026-05-08 13:06 | 38.25166 | 107.29622 | 32258 ft | 417 kts | 280° |
| 2026-05-08 13:07 | 38.25973 | 107.22344 | 32269 ft | 416 kts | 279° |
| 2026-05-08 13:07 | 38.26769 | 107.15122 | 32257 ft | 415 kts | 280° |
| 2026-05-08 13:08 | 38.27567 | 107.07834 | 32261 ft | 417 kts | 280° |
| 2026-05-08 13:08 | 38.28359 | 107.00576 | 32248 ft | 417 kts | 279° |
| 2026-05-08 13:09 | 38.29144 | 106.93308 | 32256 ft | 415 kts | 280° |
| 2026-05-08 13:09 | 38.29926 | 106.86049 | 32262 ft | 417 kts | 279° |
| 2026-05-08 13:10 | 38.30710 | 106.78723 | 32257 ft | 416 kts | 279° |
| 2026-05-08 13:10 | 38.31482 | 106.71460 | 32245 ft | 418 kts | 279° |
| 2026-05-08 13:11 | 38.32256 | 106.64146 | 32236 ft | 418 kts | 280° |
| 2026-05-08 13:11 | 38.33025 | 106.56816 | 32228 ft | 418 kts | 279° |
| 2026-05-08 13:12 | 38.33784 | 106.49547 | 32224 ft | 417 kts | 279° |
| 2026-05-08 13:12 | 38.34586 | 106.42192 | 32222 ft | 419 kts | 283° |
| 2026-05-08 13:13 | 38.36435 | 106.35204 | 32224 ft | 418 kts | 291° |
| 2026-05-08 13:13 | 38.38479 | 106.28302 | 32236 ft | 419 kts | 291° |
| 2026-05-08 13:14 | 38.40513 | 106.21387 | 32228 ft | 419 kts | 288° |
| 2026-05-08 13:14 | 38.41310 | 106.14070 | 32239 ft | 424 kts | 270° |
| 2026-05-08 13:15 | 38.39998 | 106.06718 | 32244 ft | 436 kts | 252° |
| 2026-05-08 13:15 | 38.36726 | 106.00068 | 32263 ft | 448 kts | 239° |
| 2026-05-08 13:16 | 38.32988 | 105.93774 | 32251 ft | 446 kts | 239° |
| 2026-05-08 13:16 | 38.29234 | 105.87486 | 32272 ft | 445 kts | 239° |
| 2026-05-08 13:17 | 38.25496 | 105.81248 | 32284 ft | 445 kts | 239° |
| 2026-05-08 13:17 | 38.21749 | 105.75012 | 32295 ft | 444 kts | 239° |
| 2026-05-08 13:18 | 38.18028 | 105.68832 | 32287 ft | 443 kts | 239° |
| 2026-05-08 13:18 | 38.14287 | 105.62633 | 32274 ft | 442 kts | 239° |
| 2026-05-08 13:19 | 38.10547 | 105.56441 | 32273 ft | 442 kts | 239° |
| 2026-05-08 13:19 | 38.06805 | 105.50267 | 32267 ft | 440 kts | 239° |
| 2026-05-08 13:20 | 38.03084 | 105.44132 | 32258 ft | 439 kts | 239° |
| 2026-05-08 13:20 | 37.99394 | 105.38063 | 32250 ft | 439 kts | 239° |
| 2026-05-08 13:21 | 37.95672 | 105.31948 | 32262 ft | 439 kts | 239° |
| 2026-05-08 13:21 | 37.91924 | 105.25804 | 32256 ft | 440 kts | 239° |
| 2026-05-08 13:22 | 37.88200 | 105.19710 | 32251 ft | 438 kts | 239° |
| 2026-05-08 13:22 | 37.84469 | 105.13615 | 32268 ft | 441 kts | 239° |
| 2026-05-08 13:23 | 37.80752 | 105.07556 | 32281 ft | 438 kts | 239° |
| 2026-05-08 13:23 | 37.77024 | 105.01490 | 32286 ft | 438 kts | 238° |
| 2026-05-08 13:24 | 37.73277 | 104.95404 | 32288 ft | 440 kts | 239° |
| 2026-05-08 13:24 | 37.69511 | 104.89298 | 32294 ft | 439 kts | 238° |
| 2026-05-08 13:25 | 37.65765 | 104.83234 | 32307 ft | 440 kts | 238° |
| 2026-05-08 13:25 | 37.62016 | 104.77181 | 32304 ft | 437 kts | 239° |
| 2026-05-08 13:26 | 37.58293 | 104.71176 | 32310 ft | 438 kts | 238° |
| 2026-05-08 13:26 | 37.54526 | 104.65112 | 32329 ft | 437 kts | 238° |
| 2026-05-08 13:27 | 37.50790 | 104.59112 | 32326 ft | 435 kts | 238° |
| 2026-05-08 13:27 | 37.47061 | 104.53130 | 32329 ft | 438 kts | 238° |
| 2026-05-08 13:28 | 37.43372 | 104.47120 | 32339 ft | 435 kts | 239° |
| 2026-05-08 13:28 | 37.39706 | 104.41045 | 32353 ft | 435 kts | 239° |
| 2026-05-08 13:29 | 37.36060 | 104.35012 | 32344 ft | 435 kts | 239° |
| 2026-05-08 13:29 | 37.32402 | 104.28972 | 32364 ft | 434 kts | 238° |
| 2026-05-08 13:30 | 37.28376 | 104.23261 | 32366 ft | 444 kts | 226° |
| 2026-05-08 13:30 | 37.25824 | 104.21023 | 32382 ft | 455 kts | 217° |
| 2026-05-08 13:30 | 37.22955 | 104.19307 | 32379 ft | 464 kts | 208° |
| 2026-05-08 13:31 | 37.19814 | 104.18149 | 32192 ft | 474 kts | 199° |
| 2026-05-08 13:31 | 37.16560 | 104.17623 | 31931 ft | 479 kts | 189° |
| 2026-05-08 13:31 | 37.13191 | 104.17747 | 31675 ft | 483 kts | 181° |
| 2026-05-08 13:31 | 37.09869 | 104.18198 | 31427 ft | 479 kts | 181° |
| 2026-05-08 13:32 | 37.06556 | 104.18542 | 31162 ft | 479 kts | 182° |
| 2026-05-08 13:32 | 37.03213 | 104.18843 | 30903 ft | 481 kts | 182° |
| 2026-05-08 13:32 | 36.99858 | 104.19113 | 30667 ft | 483 kts | 182° |
| 2026-05-08 13:32 | 36.96536 | 104.19360 | 30402 ft | 485 kts | 182° |
| 2026-05-08 13:33 | 36.93139 | 104.19601 | 30142 ft | 484 kts | 182° |
| 2026-05-08 13:33 | 36.89801 | 104.19827 | 29624 ft | 491 kts | 182° |
| 2026-05-08 13:33 | 36.86360 | 104.20052 | 28851 ft | 497 kts | 182° |
| 2026-05-08 13:33 | 36.82927 | 104.20279 | 28095 ft | 495 kts | 182° |
| 2026-05-08 13:34 | 36.79487 | 104.20505 | 27339 ft | 494 kts | 181° |
| 2026-05-08 13:34 | 36.76080 | 104.20725 | 26580 ft | 492 kts | 181° |
| 2026-05-08 13:34 | 36.72683 | 104.20944 | 25824 ft | 491 kts | 180° |
| 2026-05-08 13:34 | 36.69297 | 104.21163 | 25270 ft | 480 kts | 180° |
| 2026-05-08 13:35 | 36.66014 | 104.21380 | 24674 ft | 463 kts | 180° |
| 2026-05-08 13:35 | 36.62843 | 104.21580 | 23473 ft | 462 kts | 179° |
| 2026-05-08 13:35 | 36.59638 | 104.21783 | 22808 ft | 460 kts | 179° |
| 2026-05-08 13:35 | 36.56447 | 104.21954 | 22033 ft | 459 kts | 182° |
| 2026-05-08 13:36 | 36.53286 | 104.21652 | 21275 ft | 456 kts | 192° |
| 2026-05-08 13:36 | 36.50238 | 104.20710 | 20554 ft | 451 kts | 202° |
| 2026-05-08 13:36 | 36.47487 | 104.19167 | 20498 ft | 430 kts | 211° |
| 2026-05-08 13:36 | 36.44966 | 104.17227 | 20003 ft | 423 kts | 216° |
| 2026-05-08 13:37 | 36.42511 | 104.15237 | 19452 ft | 420 kts | 216° |
| 2026-05-08 13:37 | 36.40087 | 104.13217 | 18881 ft | 415 kts | 216° |
| 2026-05-08 13:37 | 36.37757 | 104.11256 | 17892 ft | 410 kts | 216° |
| 2026-05-08 13:37 | 36.35405 | 104.09262 | 16891 ft | 405 kts | 216° |
| 2026-05-08 13:38 | 36.33098 | 104.07300 | 15926 ft | 399 kts | 216° |
| 2026-05-08 13:38 | 36.30833 | 104.05370 | 14957 ft | 394 kts | 216° |
| 2026-05-08 13:38 | 36.28631 | 104.03490 | 14062 ft | 387 kts | 216° |
| 2026-05-08 13:38 | 36.26606 | 104.01344 | 13323 ft | 375 kts | 230° |
| 2026-05-08 13:39 | 36.25178 | 103.98710 | 12629 ft | 364 kts | 246° |
| 2026-05-08 13:39 | 36.24486 | 103.95853 | 12461 ft | 337 kts | 263° |
| 2026-05-08 13:39 | 36.24205 | 103.93083 | 12443 ft | 312 kts | 265° |
| 2026-05-08 13:39 | 36.24004 | 103.90499 | 12433 ft | 288 kts | 266° |
| 2026-05-08 13:40 | 36.23860 | 103.88103 | 12502 ft | 274 kts | 268° |
| 2026-05-08 13:40 | 36.23745 | 103.85754 | 12448 ft | 272 kts | 269° |
| 2026-05-08 13:40 | 36.23648 | 103.83452 | 12462 ft | 269 kts | 269° |
| 2026-05-08 13:40 | 36.23558 | 103.81136 | 12457 ft | 271 kts | 269° |
| 2026-05-08 13:41 | 36.23460 | 103.78767 | 12150 ft | 286 kts | 268° |
| 2026-05-08 13:41 | 36.23340 | 103.76288 | 11601 ft | 295 kts | 268° |
| 2026-05-08 13:41 | 36.23218 | 103.73729 | 10987 ft | 302 kts | 268° |
| 2026-05-08 13:41 | 36.23244 | 103.71134 | 10368 ft | 299 kts | 284° |
| 2026-05-08 13:42 | 36.24056 | 103.68836 | 9916 ft | 286 kts | 312° |
| 2026-05-08 13:42 | 36.25524 | 103.67385 | 9802 ft | 263 kts | 340° |
| 2026-05-08 13:42 | 36.27228 | 103.66779 | 9685 ft | 251 kts | 349° |
| 2026-05-08 13:42 | 36.28928 | 103.66309 | 9411 ft | 247 kts | 349° |
| 2026-05-08 13:43 | 36.30568 | 103.65887 | 9305 ft | 229 kts | 354° |
| 2026-05-08 13:43 | 36.32114 | 103.65778 | 8974 ft | 219 kts | 360° |
| 2026-05-08 13:43 | 36.33552 | 103.65708 | 8947 ft | 196 kts | 359° |
| 2026-05-08 13:43 | 36.34878 | 103.65633 | 8944 ft | 184 kts | 359° |
| 2026-05-08 13:44 | 36.36179 | 103.65558 | 9002 ft | 190 kts | 359° |
| 2026-05-08 13:44 | 36.37557 | 103.65475 | 8803 ft | 204 kts | 359° |
| 2026-05-08 13:44 | 36.38902 | 103.65389 | 8719 ft | 179 kts | 359° |
| 2026-05-08 13:44 | 36.40132 | 103.65305 | 8427 ft | 174 kts | 359° |
| 2026-05-08 13:45 | 36.41322 | 103.65227 | 8153 ft | 169 kts | 359° |
| 2026-05-08 13:45 | 36.42487 | 103.65157 | 7909 ft | 168 kts | 359° |
| 2026-05-08 13:45 | 36.43670 | 103.65083 | 7691 ft | 171 kts | 359° |
| 2026-05-08 13:45 | 36.44865 | 103.65007 | 7498 ft | 172 kts | 358° |
| 2026-05-08 13:46 | 36.46055 | 103.64922 | 7273 ft | 171 kts | 358° |
| 2026-05-08 13:46 | 36.47258 | 103.64853 | 7020 ft | 171 kts | 358° |
| 2026-05-08 13:46 | 36.48447 | 103.64786 | 6801 ft | 170 kts | 359° |
| 2026-05-08 13:46 | 36.49622 | 103.64694 | 6591 ft | 168 kts | 358° |
| 2026-05-08 13:47 | 36.50783 | 103.64619 | 6419 ft | 165 kts | 358° |
| 2026-05-08 13:47 | 36.51867 | 103.64551 | 6406 ft | 144 kts | 358° |
| 2026-05-08 13:47 | 36.52704 | 103.64497 | 6406 ft | 85 kts | 356° |
| 2026-05-08 13:47 | 36.53073 | 103.64473 | 6407 ft | 33 kts | 356° |
| 2026-05-08 13:48 | 36.53301 | 103.64459 | 6407 ft | 31 kts | 358° |
| 2026-05-08 13:48 | 36.53500 | 103.64443 | 6407 ft | 19 kts | 355° |
| 2026-05-08 13:48 | 36.53571 | 103.64427 | 6407 ft | 8 kts | 333° |
| 2026-05-08 13:48 | 36.53599 | 103.64389 | 6407 ft | 4 kts | 291° |
| 2026-05-08 13:49 | 36.53601 | 103.64350 | 6407 ft | 6 kts | 270° |
| 2026-05-08 13:49 | 36.53599 | 103.64278 | 6407 ft | 8 kts | 268° |
| 2026-05-08 13:49 | 36.53598 | 103.64213 | 6407 ft | 6 kts | 267° |
| 2026-05-08 13:49 | 36.53585 | 103.64166 | 6407 ft | 4 kts | 223° |
| 2026-05-08 13:50 | 36.53557 | 103.64153 | 6407 ft | 4 kts | 188° |
| 2026-05-08 13:50 | 36.53522 | 103.64152 | 6407 ft | 5 kts | 180° |
| 2026-05-08 13:50 | 36.53477 | 103.64153 | 6407 ft | 7 kts | 178° |
| 2026-05-08 13:50 | 36.53415 | 103.64156 | 6407 ft | 9 kts | 178° |
| 2026-05-08 13:51 | 36.53347 | 103.64162 | 6407 ft | 9 kts | 170° |
| 2026-05-08 13:51 | 36.53281 | 103.64168 | 6407 ft | 9 kts | 179° |
| 2026-05-08 13:51 | 36.53218 | 103.64168 | 6407 ft | 8 kts | 179° |
| 2026-05-08 13:51 | 36.53163 | 103.64173 | 6407 ft | 9 kts | 176° |
| 2026-05-08 13:52 | 36.53091 | 103.64178 | 6407 ft | 9 kts | 176° |
| 2026-05-08 13:52 | 36.53032 | 103.64178 | 6406 ft | 7 kts | 198° |
| 2026-05-08 13:52 | 36.52997 | 103.64125 | 6406 ft | 10 kts | 253° |
| 2026-05-08 13:52 | 36.52989 | 103.64028 | 6406 ft | 10 kts | 266° |
| 2026-05-08 13:53 | 36.52985 | 103.63949 | 6406 ft | 8 kts | 266° |
| 2026-05-08 13:53 | 36.52982 | 103.63889 | 6406 ft | 5 kts | 268° |
| 2026-05-08 13:53 | 36.52981 | 103.63844 | 6406 ft | 4 kts | 268° |
| 2026-05-08 13:53 | 36.52979 | 103.63803 | 6406 ft | 5 kts | 268° |
| 2026-05-08 13:54 | 36.52978 | 103.63747 | 6406 ft | 6 kts | 268° |
| 2026-05-08 13:54 | 36.52973 | 103.63702 | 6406 ft | 3 kts | 246° |
| 2026-05-08 13:54 | 36.52951 | 103.63676 | 6406 ft | 5 kts | 204° |
| 2026-05-08 13:54 | 36.52914 | 103.63682 | 6406 ft | 5 kts | 158° |
| 2026-05-08 13:55 | 36.52886 | 103.63698 | 6406 ft | 2 kts | 154° |
| 2026-05-08 13:55 | 36.52884 | 103.63699 | 6406 ft | 0 kts | 154° |